Disclaimer

Please do not use the information listed here in-flight or in-navigation, as they are not provided to us by the airports but are provided by volunteers, so they might be outdated.

Search


Regions


Airport information page

Radio informations:
GUARA TWR - 125.9 MHz
GUARA APP - 122.8 MHz

Airport informations:
Latitude: 22° 47' 29.79" S
Longitude: 045° 12' 17.20" W
Elevation: 1761 feet - 537 meters
Operating hours: From sunrise to sunset (SR-SS)
Operating agency: Military-civil joint use airport
Timezone: UTC-3(-2DT)
Fuel: Jet A1, without icing nhibitor.

100/130 octane gasoline, leaded, MIL-L-5572F (GREEN)

Runway information:
02/20 - 5089 x 98 feet< - >1551 x 30 meters

Recent METARs:
SBGW 181600Z 03003KT 9999 SCT030 32/17 Q1013
SBGW 181700Z 03004KT 9999 SCT030 32/18 Q1012
SBGW 181700Z 03004KT 9999 SCT030 32/18 Q1012

Airport on the map: